Time;durP1;ratioP1;P1;durP2;ratioP2;P2;SDS_P1;SDS_P2;PMS_P1;PMS_P2;Temp;Humidity;BMP_temperature;BMP_pressure;BME280_temperature;BME280_humidity;BME280_pressure;Samples;Min_cycle;Max_cycle;Signal;HPM_P1;HPM_P2
2023/09/13 00:02:28;;;;;;;52.27;30.80;;;;;;;16.44;100.00;100948.41;7364579;19;20451;-40
2023/09/13 00:04:58;;;;;;;53.13;30.27;;;;;;;16.40;100.00;100954.38;7392751;19;20418;-40
2023/09/13 00:07:28;;;;;;;54.67;31.13;;;;;;;16.10;100.00;100952.00;7368427;19;20814;-42
2023/09/13 00:10:01;;;;;;;64.43;31.60;;;;;;;16.15;100.00;100966.88;7392942;19;20443;-41
2023/09/13 00:12:30;;;;;;;50.27;28.73;;;;;;;16.10;100.00;100978.03;7367213;19;20447;-40
2023/09/13 00:15:00;;;;;;;54.30;30.73;;;;;;;16.32;100.00;100979.38;7392561;19;20420;-42
2023/09/13 00:17:29;;;;;;;53.40;30.43;;;;;;;16.43;100.00;100963.97;7368201;19;20422;-44
2023/09/13 00:19:59;;;;;;;69.47;34.87;;;;;;;16.35;100.00;100965.56;7394137;19;20439;-43
2023/09/13 00:22:29;;;;;;;60.10;32.30;;;;;;;16.21;100.00;100960.94;7368296;19;20498;-44
2023/09/13 00:25:01;;;;;;;62.20;32.03;;;;;;;16.33;100.00;100965.50;7392653;19;20494;-43
2023/09/13 00:27:30;;;;;;;60.77;32.30;;;;;;;16.48;100.00;100975.38;7368823;19;20872;-41
2023/09/13 00:30:00;;;;;;;61.60;33.27;;;;;;;16.32;100.00;100962.03;7392559;19;20469;-44
2023/09/13 00:32:29;;;;;;;48.80;29.20;;;;;;;16.29;100.00;100961.97;7366270;19;20444;-43
2023/09/13 00:34:59;;;;;;;61.70;32.30;;;;;;;16.53;100.00;100965.94;7393908;19;20398;-41
2023/09/13 00:37:29;;;;;;;60.73;33.50;;;;;;;16.42;100.00;100954.41;7368470;19;20518;-44
2023/09/13 00:40:01;;;;;;;57.90;30.67;;;;;;;16.36;100.00;100951.69;7392232;19;20518;-45
2023/09/13 00:42:31;;;;;;;55.20;31.27;;;;;;;16.32;100.00;100949.00;7370650;19;20460;-44
2023/09/13 00:45:00;;;;;;;52.50;30.97;;;;;;;16.39;100.00;100938.72;7389885;19;20810;-44
2023/09/13 00:47:30;;;;;;;56.10;30.70;;;;;;;16.33;100.00;100936.88;7368170;19;20808;-45
2023/09/13 00:50:00;;;;;;;52.20;30.07;;;;;;;16.24;100.00;100936.69;7391897;19;20858;-44
2023/09/13 00:52:29;;;;;;;57.70;30.50;;;;;;;16.22;100.00;100949.69;7367814;19;20819;-40
2023/09/13 00:55:02;;;;;;;61.83;31.20;;;;;;;16.36;100.00;100949.09;7392105;19;20961;-41
2023/09/13 00:57:31;;;;;;;64.73;36.20;;;;;;;16.35;100.00;100955.16;7370656;19;20675;-42
2023/09/13 01:00:02;;;;;;;56.60;31.57;;;;;;;16.37;100.00;100950.84;7392270;19;20840;-39
2023/09/13 01:02:32;;;;;;;54.30;29.97;;;;;;;16.37;100.00;100956.03;7370658;19;20451;-42
2023/09/13 01:05:03;;;;;;;59.40;32.10;;;;;;;16.37;100.00;100948.22;7392558;19;20420;-40
2023/09/13 01:07:33;;;;;;;54.97;30.20;;;;;;;16.33;100.00;100952.50;7371534;19;20439;-44
2023/09/13 01:10:07;;;;;;;54.40;29.17;;;;;;;16.30;100.00;100952.41;7394069;19;20447;-42
2023/09/13 01:12:37;;;;;;;53.90;28.37;;;;;;;16.35;100.00;100953.41;7371407;19;20450;-42
2023/09/13 01:15:09;;;;;;;59.53;30.47;;;;;;;16.43;100.00;100956.16;7381407;19;20408;-44
2023/09/13 01:17:44;;;;;;;61.27;30.63;;;;;;;16.38;100.00;100945.66;7388550;19;20403;-44
2023/09/13 01:20:17;;;;;;;54.33;30.37;;;;;;;16.36;100.00;100949.94;7369118;19;20526;-43
2023/09/13 01:23:12;;;;;;;54.80;28.20;;;;;;;16.30;100.00;100944.59;7391082;19;20404;-44
2023/09/13 01:25:58;;;;;;;57.03;29.53;;;;;;;16.29;100.00;100945.47;7370223;19;20723;-42
2023/09/13 01:28:42;;;;;;;55.57;29.20;;;;;;;16.26;100.00;100943.66;7393591;19;20418;-45
2023/09/13 01:31:12;;;;;;;54.90;27.97;;;;;;;16.24;100.00;100944.50;7367564;19;20431;-44
2023/09/13 01:33:42;;;;;;;55.30;27.63;;;;;;;16.20;100.00;100933.13;7393377;19;20478;-41
2023/09/13 01:36:12;;;;;;;55.13;28.47;;;;;;;16.17;100.00;100933.06;7368747;19;20504;-43
2023/09/13 01:38:42;;;;;;;66.10;27.17;;;;;;;16.22;100.00;100938.38;7395710;19;20426;-41
2023/09/13 01:41:17;;;;;;;62.30;28.77;;;;;;;16.25;100.00;100938.44;7369067;19;20615;-43
2023/09/13 01:43:50;;;;;;;62.77;29.73;;;;;;;16.29;100.00;100928.13;7392802;19;20399;-43
2023/09/13 01:46:20;;;;;;;55.23;27.87;;;;;;;16.28;100.00;100936.78;7368114;19;20429;-42
2023/09/13 01:48:50;;;;;;;65.40;28.30;;;;;;;16.29;100.00;100928.13;7392276;19;20407;-41
2023/09/13 01:51:20;;;;;;;56.63;27.63;;;;;;;16.26;100.00;100922.84;7368719;19;20777;-43
2023/09/13 01:53:49;;;;;;;58.97;29.03;;;;;;;16.29;100.00;100919.44;7391016;19;21157;-41
2023/09/13 01:56:21;;;;;;;61.47;27.80;;;;;;;16.29;100.00;100912.50;7368854;19;20791;-42
2023/09/13 01:58:53;;;;;;;56.40;26.80;;;;;;;16.30;100.00;100898.63;7385493;19;20779;-43
2023/09/13 02:01:23;;;;;;;61.63;28.23;;;;;;;16.27;100.00;100893.38;7366557;19;20820;-43
2023/09/13 02:03:53;;;;;;;57.17;27.40;;;;;;;16.31;100.00;100879.56;7391474;19;20403;-43
2023/09/13 02:06:23;;;;;;;57.10;26.87;;;;;;;16.33;100.00;100870.09;7368854;19;20451;-41
2023/09/13 02:08:52;;;;;;;61.23;27.87;;;;;;;16.41;100.00;100856.34;7391558;19;20432;-43
2023/09/13 02:11:22;;;;;;;69.60;29.83;;;;;;;16.42;100.00;100845.06;7367626;19;20451;-40
2023/09/13 02:13:55;;;;;;;65.60;28.20;;;;;;;16.42;100.00;100845.06;7392652;19;20403;-42
2023/09/13 02:16:24;;;;;;;58.70;28.53;;;;;;;16.46;100.00;100833.88;7367618;19;20423;-40
2023/09/13 02:18:54;;;;;;;72.67;30.23;;;;;;;16.43;100.00;100831.19;7391368;19;20943;-41
2023/09/13 02:21:24;;;;;;;65.47;29.57;;;;;;;16.39;100.00;100824.16;7367270;19;20427;-43
2023/09/13 02:23:54;;;;;;;61.17;28.40;;;;;;;16.39;100.00;100813.75;7390857;19;20388;-44
2023/09/13 02:26:24;;;;;;;65.37;28.83;;;;;;;16.41;100.00;100817.28;7367853;19;20984;-42
2023/09/13 02:28:56;;;;;;;59.40;27.30;;;;;;;16.42;100.00;100813.81;7393239;19;20408;-42
2023/09/13 02:31:27;;;;;;;63.40;27.30;;;;;;;16.44;100.00;100812.09;7366983;19;20524;-42
2023/09/13 02:33:57;;;;;;;62.27;27.60;;;;;;;16.46;100.00;100810.44;7390294;19;20420;-41
2023/09/13 02:36:27;;;;;;;58.93;28.20;;;;;;;16.42;100.00;100804.25;7367452;19;20810;-41
2023/09/13 02:38:56;;;;;;;58.57;26.70;;;;;;;16.43;100.00;100803.44;7390851;19;20976;-41
2023/09/13 02:41:26;;;;;;;63.93;27.27;;;;;;;16.45;100.00;100799.13;7366527;19;20799;-41
2023/09/13 02:43:58;;;;;;;57.63;26.33;;;;;;;16.45;100.00;100793.03;7391586;19;20441;-41
2023/09/13 02:46:28;;;;;;;61.60;26.10;;;;;;;16.44;100.00;100796.50;7367821;19;20421;-43
2023/09/13 02:48:57;;;;;;;61.80;27.53;;;;;;;16.47;100.00;100794.81;7390728;19;20820;-43
2023/09/13 02:51:27;;;;;;;69.10;27.80;;;;;;;16.47;100.00;100792.22;7366568;19;21004;-43
2023/09/13 02:53:56;;;;;;;54.47;26.70;;;;;;;16.44;100.00;100797.38;7389286;19;20408;-42
2023/09/13 02:56:26;;;;;;;55.97;26.40;;;;;;;16.45;100.00;100793.91;7362145;19;20426;-42
2023/09/13 02:58:58;;;;;;;65.37;26.57;;;;;;;16.44;100.00;100793.88;7390124;19;20503;-41
2023/09/13 03:01:28;;;;;;;60.23;25.10;;;;;;;16.46;100.00;100784.41;7365165;19;20452;-42
2023/09/13 03:03:58;;;;;;;48.73;24.70;;;;;;;16.46;100.00;100784.41;7390717;19;20417;-42
2023/09/13 03:06:29;;;;;;;52.87;24.77;;;;;;;16.47;100.00;100778.34;7365999;19;20427;-42
2023/09/13 03:08:59;;;;;;;88.30;39.70;;;;;;;16.50;100.00;100775.75;7399163;19;20952;-41
2023/09/13 03:11:28;;;;;;;114.90;50.87;;;;;;;16.54;100.00;100771.47;7371722;19;20438;-42
2023/09/13 03:14:00;;;;;;;75.37;33.60;;;;;;;16.48;100.00;100767.06;7395237;19;20936;-41
2023/09/13 03:16:30;;;;;;;80.13;38.10;;;;;;;16.49;100.00;100762.72;7373457;19;20433;-41
2023/09/13 03:19:00;;;;;;;66.60;34.30;;;;;;;16.47;100.00;100754.91;7399009;19;20424;-43
2023/09/13 03:21:30;;;;;;;70.47;34.70;;;;;;;16.43;100.00;100706.22;7372717;19;20963;-41
2023/09/13 03:23:59;;;;;;;51.00;25.10;;;;;;;16.43;100.00;100670.66;7398466;19;20401;-42
2023/09/13 03:26:31;;;;;;;37.93;18.03;;;;;;;16.37;100.00;100638.41;7372904;19;20482;-43
2023/09/13 03:29:03;;;;;;;39.60;20.90;;;;;;;16.38;100.00;100641.06;7395997;19;20482;-42
2023/09/13 03:31:35;;;;;;;34.10;19.30;;;;;;;16.32;100.00;100634.00;7370366;19;21026;-42
2023/09/13 03:34:05;;;;;;;32.90;16.50;;;;;;;16.36;100.00;100642.72;7396070;19;20403;-40
2023/09/13 03:36:35;;;;;;;34.87;16.23;;;;;;;16.27;100.00;100647.81;7372431;19;20419;-41
2023/09/13 03:39:05;;;;;;;34.03;17.23;;;;;;;16.31;100.00;100645.28;7396369;19;20395;-41
2023/09/13 03:41:35;;;;;;;30.23;15.80;;;;;;;16.22;100.00;100650.34;7372000;19;20446;-40
2023/09/13 03:44:07;;;;;;;28.97;16.40;;;;;;;16.26;100.00;100661.69;7395448;19;20483;-41
2023/09/13 03:46:37;;;;;;;23.13;12.03;;;;;;;16.18;100.00;100665.03;7370998;19;20487;-41
2023/09/13 03:49:07;;;;;;;20.03;11.27;;;;;;;16.18;100.00;100664.16;7392484;19;20424;-41
2023/09/13 03:51:37;;;;;;;29.53;14.93;;;;;;;16.20;100.00;100670.25;7367089;19;20875;-42
2023/09/13 03:54:06;;;;;;;25.13;13.70;;;;;;;16.20;100.00;100678.94;7391492;19;20440;-42
2023/09/13 03:56:36;;;;;;;22.53;12.00;;;;;;;16.11;100.00;100683.09;7367990;19;20423;-40
2023/09/13 03:59:08;;;;;;;25.10;12.83;;;;;;;15.99;100.00;100689.84;7392564;19;20753;-41
2023/09/13 04:01:38;;;;;;;24.07;12.07;;;;;;;15.99;100.00;100700.25;7367955;19;20427;-42
2023/09/13 04:04:08;;;;;;;28.97;11.90;;;;;;;15.97;100.00;100712.34;7392480;19;21035;-40
2023/09/13 04:06:39;;;;;;;18.13;11.47;;;;;;;15.81;100.00;100721.56;7368755;19;20531;-41
2023/09/13 04:09:09;;;;;;;20.43;11.20;;;;;;;15.76;100.00;100721.47;7393659;19;20486;-41
2023/09/13 04:11:39;;;;;;;23.87;10.93;;;;;;;15.73;100.00;100726.59;7367178;19;20514;-41
2023/09/13 04:14:11;;;;;;;20.53;9.73;;;;;;;15.63;100.00;100727.25;7393210;19;20407;-42
2023/09/13 04:16:41;;;;;;;21.03;11.10;;;;;;;15.72;100.00;100730.06;7369426;19;20471;-42
2023/09/13 04:19:10;;;;;;;18.00;9.63;;;;;;;15.59;100.00;100717.66;7394621;19;20404;-42
2023/09/13 04:21:40;;;;;;;22.67;12.47;;;;;;;15.56;100.00;100715.88;7368728;19;20532;-43
2023/09/13 04:24:10;;;;;;;11.20;7.90;;;;;;;15.47;100.00;100700.06;7396060;19;20762;-41
2023/09/13 04:26:39;;;;;;;45.00;9.80;;;;;;;15.43;100.00;100688.72;7370389;19;20951;-42
2023/09/13 04:29:12;;;;;;;18.67;8.80;;;;;;;15.41;100.00;100685.22;7394433;19;20411;-41
2023/09/13 04:31:41;;;;;;;11.50;6.93;;;;;;;15.28;100.00;100691.03;7369803;19;20439;-42
2023/09/13 04:34:11;;;;;;;10.63;6.33;;;;;;;15.27;100.00;100684.94;7394549;19;20416;-42
2023/09/13 04:36:40;;;;;;;13.97;6.80;;;;;;;15.19;100.00;100684.78;7369977;19;20439;-42
2023/09/13 04:39:10;;;;;;;8.20;6.03;;;;;;;15.13;100.00;100692.44;7394731;19;20414;-41
2023/09/13 04:41:40;;;;;;;11.23;6.10;;;;;;;15.09;100.00;100690.63;7369925;19;20451;-42
2023/09/13 04:44:12;;;;;;;8.70;5.67;;;;;;;15.07;100.00;100689.72;7394047;19;20760;-41
2023/09/13 04:46:42;;;;;;;10.40;5.27;;;;;;;15.08;100.00;100683.66;7371489;19;20438;-43
2023/09/13 04:49:12;;;;;;;9.07;5.60;;;;;;;15.14;100.00;100698.50;7395148;19;20408;-42
2023/09/13 04:51:41;;;;;;;6.23;4.00;;;;;;;14.96;100.00;100686.84;7370214;19;20842;-42
2023/09/13 04:54:11;;;;;;;5.80;4.10;;;;;;;14.95;100.00;100700.69;7393560;19;20772;-42
2023/09/13 04:56:41;;;;;;;7.43;4.10;;;;;;;14.98;100.00;100700.78;7370697;19;20452;-41
2023/09/13 04:59:13;;;;;;;8.57;3.63;;;;;;;14.84;100.00;100703.03;7396224;19;20398;-42
2023/09/13 05:01:43;;;;;;;5.97;3.77;;;;;;;14.84;100.00;100705.66;7368702;19;20459;-42
2023/09/13 05:04:13;;;;;;;4.40;2.93;;;;;;;14.77;100.00;100708.94;7393779;19;20399;-42
2023/09/13 05:06:42;;;;;;;4.57;3.00;;;;;;;14.77;100.00;100712.41;7368263;19;20419;-42
2023/09/13 05:09:12;;;;;;;5.60;3.40;;;;;;;14.71;100.00;100718.31;7394471;19;20414;-41
2023/09/13 05:11:41;;;;;;;7.40;3.77;;;;;;;14.71;100.00;100728.69;7369167;19;20439;-42
2023/09/13 05:14:15;;;;;;;8.90;3.00;;;;;;;14.68;100.00;100733.78;7393223;19;20415;-43
2023/09/13 05:16:44;;;;;;;7.53;3.33;;;;;;;14.66;100.00;100745.88;7369580;19;20419;-41
2023/09/13 05:19:14;;;;;;;7.30;3.10;;;;;;;14.61;100.00;100742.28;7393878;19;20399;-40
2023/09/13 05:21:44;;;;;;;4.97;3.57;;;;;;;14.67;100.00;100736.38;7369023;19;20939;-41
2023/09/13 05:24:14;;;;;;;5.40;3.00;;;;;;;14.70;100.00;100742.53;7393565;19;20408;-41
2023/09/13 05:26:43;;;;;;;5.10;2.90;;;;;;;14.71;100.00;100733.88;7369861;19;20502;-41
2023/09/13 05:29:15;;;;;;;6.47;3.20;;;;;;;14.64;100.00;100737.19;7392910;19;20407;-40
2023/09/13 05:31:45;;;;;;;3.83;2.30;;;;;;;14.56;100.00;100736.13;7367641;19;20915;-41
2023/09/13 05:34:15;;;;;;;4.93;3.20;;;;;;;14.63;100.00;100743.22;7392782;19;20411;-41
2023/09/13 05:36:44;;;;;;;3.47;2.20;;;;;;;14.53;100.00;100741.22;7368990;19;20443;-41
2023/09/13 05:39:14;;;;;;;3.30;2.63;;;;;;;14.50;100.00;100747.22;7393136;19;20927;-41
2023/09/13 05:41:44;;;;;;;4.97;2.03;;;;;;;14.50;100.00;100748.94;7368264;19;20799;-41
2023/09/13 05:44:20;;;;;;;6.67;2.00;;;;;;;14.45;100.00;100741.91;7392271;19;20483;-41
2023/09/13 05:46:50;;;;;;;3.90;1.83;;;;;;;14.51;100.00;100738.56;7361386;19;20466;-47
2023/09/13 05:49:20;;;;;;;5.33;1.77;;;;;;;14.45;100.00;100746.19;7393822;19;20400;-46
2023/09/13 05:51:50;;;;;;;10.30;5.70;;;;;;;14.47;100.00;100744.53;7368609;19;20451;-46
2023/09/13 05:54:19;;;;;;;7.13;2.40;;;;;;;14.46;100.00;100747.97;7393017;19;20487;-47
2023/09/13 05:56:49;;;;;;;7.07;3.57;;;;;;;14.42;100.00;100752.19;7366788;19;20477;-45
2023/09/13 05:59:21;;;;;;;2.57;1.57;;;;;;;14.38;100.00;100754.69;7395503;19;20399;-47
2023/09/13 06:01:51;;;;;;;3.20;1.27;;;;;;;14.31;100.00;100753.66;7368632;19;20923;-46
2023/09/13 06:04:20;;;;;;;2.37;1.50;;;;;;;14.29;100.00;100765.69;7394663;19;20503;-50
2023/09/13 06:06:50;;;;;;;3.00;2.13;;;;;;;14.33;100.00;100767.53;7365201;19;20526;-51
2023/09/13 06:09:21;;;;;;;8.20;4.37;;;;;;;14.38;100.00;100781.53;7393557;19;20410;-47
2023/09/13 06:11:51;;;;;;;2.30;1.73;;;;;;;14.31;100.00;100777.88;7367605;19;20466;-46
2023/09/13 06:14:23;;;;;;;3.63;2.27;;;;;;;14.24;100.00;100780.25;7393012;19;20991;-50
2023/09/13 06:16:53;;;;;;;8.50;2.50;;;;;;;14.20;100.00;100787.06;7366212;19;20463;-50
2023/09/13 06:19:23;;;;;;;3.87;2.60;;;;;;;14.22;100.00;100785.41;7393414;19;20429;-49
2023/09/13 06:21:55;;;;;;;3.83;2.60;;;;;;;14.22;100.00;100792.31;7368461;19;20431;-47
2023/09/13 06:24:25;;;;;;;4.77;2.70;;;;;;;14.16;100.00;100806.88;7394228;19;20407;-45
2023/09/13 06:26:57;;;;;;;3.70;2.70;;;;;;;14.15;100.00;100812.91;7366245;19;20802;-49
2023/09/13 06:29:29;;;;;;;5.40;3.47;;;;;;;14.15;100.00;100828.47;7392871;19;20411;-51
2023/09/13 06:31:59;;;;;;;5.70;3.40;;;;;;;14.17;100.00;100844.09;7368834;19;20431;-50
2023/09/13 06:34:35;;;;;;;4.80;3.30;;;;;;;14.08;100.00;100860.25;7392763;19;20424;-46
2023/09/13 06:37:05;;;;;;;45.37;20.53;;;;;;;14.14;100.00;100880.31;7365713;19;20463;-44
2023/09/13 06:39:35;;;;;;;13.73;5.03;;;;;;;14.10;100.00;100910.47;7393076;19;20403;-46
2023/09/13 06:42:06;;;;;;;10.03;4.37;;;;;;;14.05;100.00;100927.59;7372579;19;20990;-47
2023/09/13 06:44:59;;;;;;;8.30;4.47;;;;;;;13.93;100.00;100950.59;7398319;19;20403;-50
2023/09/13 06:47:49;;;;;;;10.13;5.30;;;;;;;13.94;100.00;100971.38;7377976;19;20427;-45
2023/09/13 06:50:19;;;;;;;11.03;5.33;;;;;;;13.87;100.00;100974.63;7373537;19;20415;-48
2023/09/13 06:53:09;;;;;;;11.33;6.03;;;;;;;13.97;100.00;100987.06;7399567;19;20395;-47
2023/09/13 06:55:58;;;;;;;8.20;3.20;;;;;;;13.85;100.00;100987.53;7374146;19;20480;-49
2023/09/13 06:58:33;;;;;;;10.07;3.30;;;;;;;13.91;100.00;100998.09;7398158;19;20413;-46
2023/09/13 07:01:09;;;;;;;9.67;3.63;;;;;;;13.81;100.00;101016.81;7374161;19;20456;-46
2023/09/13 07:03:41;;;;;;;6.60;3.20;;;;;;;13.79;100.00;101023.63;7397671;19;20367;-48
2023/09/13 07:06:19;;;;;;;9.00;3.77;;;;;;;13.83;100.00;101025.50;7372769;19;20447;-45
2023/09/13 07:08:48;;;;;;;9.67;3.40;;;;;;;13.82;100.00;101044.50;7401438;19;20406;-46
2023/09/13 07:11:18;;;;;;;9.00;4.57;;;;;;;13.90;100.00;101052.53;7374176;19;20431;-46
2023/09/13 07:13:48;;;;;;;14.47;3.47;;;;;;;13.90;100.00;101057.72;7397148;19;20486;-46
2023/09/13 07:16:20;;;;;;;8.80;3.40;;;;;;;13.90;100.00;101058.59;7369721;19;20443;-48
2023/09/13 07:18:49;;;;;;;5.97;3.37;;;;;;;13.93;100.00;101064.72;7399098;19;20399;-49
2023/09/13 07:21:19;;;;;;;8.67;3.60;;;;;;;13.89;100.00;101076.69;7375058;19;20522;-45
2023/09/13 07:23:49;;;;;;;11.03;3.30;;;;;;;13.89;100.00;101077.59;7400542;19;20410;-47
2023/09/13 07:26:18;;;;;;;10.60;4.20;;;;;;;13.86;100.00;101072.31;7372401;19;20450;-45
2023/09/13 07:28:48;;;;;;;11.50;3.67;;;;;;;13.83;100.00;101081.66;7398093;19;20415;-47
2023/09/13 07:31:20;;;;;;;10.60;3.40;;;;;;;13.96;100.00;101077.78;7371763;19;20466;-46
2023/09/13 07:33:50;;;;;;;8.20;3.33;;;;;;;13.91;100.00;101088.88;7396734;19;20412;-51
2023/09/13 07:36:20;;;;;;;14.53;3.70;;;;;;;13.85;100.00;101086.06;7370849;19;20522;-47
2023/09/13 07:38:49;;;;;;;5.60;2.97;;;;;;;13.81;100.00;101086.81;7396111;19;20953;-51
2023/09/13 07:41:19;;;;;;;16.67;3.10;;;;;;;13.83;100.00;101092.94;7372917;19;20411;-47
2023/09/13 07:43:48;;;;;;;12.83;2.77;;;;;;;13.72;100.00;101086.50;7399247;19;20407;-47
2023/09/13 07:46:21;;;;;;;13.03;4.00;;;;;;;13.68;100.00;101082.06;7370304;19;20506;-47
2023/09/13 07:48:50;;;;;;;7.73;3.20;;;;;;;13.70;100.00;101090.75;7396423;19;20422;-48
2023/09/13 07:51:20;;;;;;;9.10;3.10;;;;;;;13.65;100.00;101093.19;7373105;19;20519;-49
2023/09/13 07:53:53;;;;;;;7.30;2.77;;;;;;;13.74;100.00;101109.06;7393513;19;20428;-46
2023/09/13 07:56:25;;;;;;;6.90;2.60;;;;;;;13.74;100.00;101118.56;7371392;19;20447;-47
2023/09/13 07:58:54;;;;;;;11.13;3.10;;;;;;;13.81;100.00;101123.13;7398014;19;20415;-48
2023/09/13 08:01:27;;;;;;;6.00;2.83;;;;;;;13.81;100.00;101128.31;7369867;19;20427;-50
2023/09/13 08:03:56;;;;;;;7.90;2.93;;;;;;;13.74;100.00;101136.72;7395451;19;20408;-47
2023/09/13 08:06:26;;;;;;;7.23;2.70;;;;;;;13.73;100.00;101137.53;7371417;19;20451;-47
2023/09/13 08:08:56;;;;;;;9.20;2.57;;;;;;;13.50;100.00;101137.63;7394754;19;20407;-49
2023/09/13 08:11:29;;;;;;;12.50;2.50;;;;;;;13.60;100.00;101144.00;7373287;19;20842;-49
2023/09/13 08:13:58;;;;;;;9.70;3.43;;;;;;;13.60;100.00;101147.47;7391716;19;20486;-46
2023/09/13 08:16:30;;;;;;;9.50;3.47;;;;;;;13.58;100.00;101154.31;7365471;19;20484;-48
2023/09/13 08:19:00;;;;;;;12.53;2.90;;;;;;;13.68;100.00;101165.03;7397048;19;20432;-48
2023/09/13 08:21:30;;;;;;;6.73;2.43;;;;;;;13.72;100.00;101174.66;7371168;19;20492;-48
2023/09/13 08:23:59;;;;;;;12.47;3.70;;;;;;;13.76;100.00;101176.53;7396475;19;20428;-48
2023/09/13 08:26:30;;;;;;;8.97;3.20;;;;;;;13.73;100.00;101179.00;7370114;19;20471;-51
2023/09/13 08:29:03;;;;;;;9.33;2.77;;;;;;;13.79;100.00;101180.97;7395723;19;20399;-53
2023/09/13 08:31:35;;;;;;;6.27;2.70;;;;;;;13.81;100.00;101187.06;7370427;19;20534;-47
2023/09/13 08:34:05;;;;;;;9.63;2.90;;;;;;;13.83;100.00;101188.91;7396923;19;20789;-47
2023/09/13 08:36:35;;;;;;;11.03;2.93;;;;;;;13.84;100.00;101192.38;7371532;19;20545;-46
2023/09/13 08:39:06;;;;;;;14.23;5.30;;;;;;;13.78;100.00;101193.03;7397470;19;20424;-50
2023/09/13 08:41:36;;;;;;;16.13;3.97;;;;;;;13.80;100.00;101195.69;7371956;19;20425;-50
2023/09/13 08:44:07;;;;;;;15.20;4.33;;;;;;;13.87;100.00;101200.25;7395076;19;20421;-50
2023/09/13 08:46:39;;;;;;;11.10;2.67;;;;;;;13.83;100.00;101207.03;7370676;19;20471;-49
2023/09/13 08:49:10;;;;;;;17.33;3.20;;;;;;;13.79;100.00;101204.31;7397436;19;20435;-51
2023/09/13 08:51:40;;;;;;;9.00;2.40;;;;;;;13.72;100.00;101210.97;7372253;19;20426;-53
2023/09/13 08:54:10;;;;;;;13.90;2.50;;;;;;;13.77;100.00;101215.50;7394221;19;20416;-49
2023/09/13 08:56:42;;;;;;;10.73;4.80;;;;;;;13.69;100.00;101221.25;7369513;19;20443;-51
2023/09/13 08:59:12;;;;;;;10.30;3.33;;;;;;;13.74;100.00;101224.88;7395652;19;20960;-50
2023/09/13 09:01:47;;;;;;;9.80;2.77;;;;;;;13.73;100.00;101225.69;7370396;19;20970;-51
2023/09/13 09:04:18;;;;;;;9.43;2.53;;;;;;;13.77;100.00;101238.84;7394910;19;20399;-52
2023/09/13 09:06:48;;;;;;;11.50;2.60;;;;;;;13.84;100.00;101245.13;7368133;19;20439;-51
2023/09/13 09:09:20;;;;;;;9.30;2.80;;;;;;;13.83;100.00;101239.88;7395556;19;20407;-48
2023/09/13 09:11:54;;;;;;;6.70;2.70;;;;;;;13.76;100.00;101234.47;7367959;19;20463;-49
2023/09/13 09:14:25;;;;;;;5.87;2.43;;;;;;;13.83;100.00;101238.16;7395703;19;20427;-50
2023/09/13 09:16:57;;;;;;;7.80;2.80;;;;;;;14.00;100.00;101243.94;7368223;19;20578;-50
2023/09/13 09:19:28;;;;;;;11.73;2.83;;;;;;;13.91;100.00;101236.72;7395341;19;20770;-50
2023/09/13 09:21:58;;;;;;;11.57;3.00;;;;;;;14.07;100.00;101236.38;7367929;19;20789;-52
2023/09/13 09:24:29;;;;;;;9.20;2.90;;;;;;;14.22;100.00;101236.03;7394419;19;20407;-50
2023/09/13 09:26:59;;;;;;;9.67;2.60;;;;;;;14.16;100.00;101227.22;7367761;19;20455;-52
2023/09/13 09:29:36;;;;;;;24.33;3.83;;;;;;;14.26;100.00;101231.00;7395026;19;20407;-46
2023/09/13 09:32:09;;;;;;;5.50;2.30;;;;;;;14.36;100.00;101239.13;7365902;19;20778;-47
2023/09/13 09:34:43;;;;;;;9.70;2.23;;;;;;;14.35;100.00;101253.78;7390342;19;20439;-56
2023/09/13 09:37:13;;;;;;;8.23;1.87;;;;;;;14.36;100.00;101255.56;7364636;19;20475;-56
2023/09/13 09:39:44;;;;;;;9.50;2.50;;;;;;;14.43;100.00;101262.75;7390021;19;20419;-57
2023/09/13 09:42:16;;;;;;;8.20;3.00;;;;;;;14.36;100.00;101268.53;7364306;19;20455;-57
2023/09/13 09:44:46;;;;;;;10.70;2.80;;;;;;;14.38;100.00;101277.28;7391348;19;20410;-57
2023/09/13 09:47:18;;;;;;;10.00;2.80;;;;;;;14.41;100.00;101285.16;7364066;19;20561;-58
2023/09/13 09:49:49;;;;;;;9.57;2.67;;;;;;;14.44;100.00;101285.28;7392857;19;20412;-55
2023/09/13 09:52:19;;;;;;;12.00;2.30;;;;;;;14.35;100.00;101286.66;7365956;19;20475;-52
2023/09/13 09:54:49;;;;;;;8.40;2.73;;;;;;;14.29;100.00;101301.19;7393435;19;20402;-55
2023/09/13 09:57:25;;;;;;;10.00;2.83;;;;;;;14.36;100.00;101307.47;7368995;19;20463;-53
2023/09/13 09:59:55;;;;;;;10.87;3.37;;;;;;;14.40;100.00;101313.66;7393659;19;20399;-53
2023/09/13 10:02:30;;;;;;;7.53;3.07;;;;;;;14.34;100.00;101310.84;7364839;19;20419;-57
2023/09/13 10:05:03;;;;;;;8.87;2.90;;;;;;;14.27;100.00;101302.88;7394579;19;20439;-56
2023/09/13 10:07:33;;;;;;;5.47;2.40;;;;;;;14.31;100.00;101298.66;7368493;19;20478;-54
2023/09/13 10:10:02;;;;;;;10.13;2.40;;;;;;;14.27;100.00;101289.00;7393403;19;20430;-57
2023/09/13 10:12:47;;;;;;;13.00;2.60;;;;;;;14.35;100.00;101287.53;7371123;19;20542;-56
2023/09/13 10:15:19;;;;;;;3.70;1.87;;;;;;;14.46;100.00;101293.09;7369462;19;20431;-57
2023/09/13 10:17:51;;;;;;;9.13;2.50;;;;;;;14.44;100.00;101298.25;7393738;19;20399;-56
2023/09/13 10:20:23;;;;;;;10.43;3.60;;;;;;;14.49;100.00;101297.50;7370440;19;20396;-53
2023/09/13 10:22:57;;;;;;;10.53;3.57;;;;;;;14.54;100.00;101290.75;7389283;19;20431;-54
2023/09/13 10:25:29;;;;;;;13.73;2.90;;;;;;;14.62;100.00;101296.22;7361447;19;20509;-56
2023/09/13 10:28:00;;;;;;;7.73;2.43;;;;;;;14.63;100.00;101301.47;7392742;19;20823;-55
2023/09/13 10:30:35;;;;;;;7.33;2.13;;;;;;;14.60;100.00;101306.56;7368470;19;20403;-56
2023/09/13 10:33:09;;;;;;;6.50;2.60;;;;;;;14.64;100.00;101308.44;7393151;19;20403;-51
2023/09/13 10:35:44;;;;;;;358.87;246.50;;;;;;;15.29;100.00;101313.97;7367773;19;20426;-51
2023/09/13 10:38:17;;;;;;;12.00;3.23;;;;;;;14.95;100.00;101322.47;7390767;19;20399;-56
2023/09/13 10:40:51;;;;;;;9.30;3.40;;;;;;;15.00;100.00;101322.63;7366452;19;20419;-55
2023/09/13 10:43:23;;;;;;;8.23;3.30;;;;;;;15.00;100.00;101325.22;7390929;19;20474;-57
2023/09/13 10:45:53;;;;;;;22.70;3.10;;;;;;;15.03;100.00;101337.44;7365776;19;20447;-52
2023/09/13 10:48:25;;;;;;;26.47;15.63;;;;;;;15.41;100.00;101366.38;7392772;19;20483;-56
2023/09/13 10:50:56;;;;;;;29.10;11.97;;;;;;;15.40;100.00;101367.19;7366094;19;20459;-54
2023/09/13 10:53:26;;;;;;;7.10;3.47;;;;;;;15.28;100.00;101372.88;7393674;19;20420;-56
2023/09/13 10:55:57;;;;;;;7.70;3.70;;;;;;;15.32;100.00;101392.03;7364292;19;21026;-57
2023/09/13 10:58:27;;;;;;;6.13;2.53;;;;;;;15.14;100.00;101408.84;7393852;19;20431;-53
2023/09/13 11:00:58;;;;;;;14.97;6.90;;;;;;;15.41;100.00;101430.47;7365288;19;20418;-55
2023/09/13 11:03:30;;;;;;;9.23;3.60;;;;;;;15.10;100.00;101439.03;7391158;19;20430;-54
2023/09/13 11:06:01;;;;;;;7.77;2.50;;;;;;;15.14;100.00;101440.03;7367488;19;20542;-55
2023/09/13 11:08:34;;;;;;;11.30;3.17;;;;;;;15.20;100.00;101445.44;7391505;19;20415;-51
2023/09/13 11:11:14;;;;;;;11.70;3.13;;;;;;;15.30;100.00;101457.00;7366888;19;20502;-51
2023/09/13 11:13:45;;;;;;;7.60;3.00;;;;;;;15.31;100.00;101470.88;7392077;19;20899;-53
2023/09/13 11:16:19;;;;;;;8.83;3.37;;;;;;;15.03;100.00;101482.94;7366600;19;21076;-52
2023/09/13 11:18:53;;;;;;;9.93;3.30;;;;;;;15.34;100.00;101486.59;7394270;19;20406;-52
2023/09/13 11:21:25;;;;;;;9.47;2.43;;;;;;;15.11;100.00;101486.69;7366388;19;20523;-54
2023/09/13 11:23:56;;;;;;;12.10;2.90;;;;;;;15.10;100.00;101487.50;7392328;19;20411;-56
2023/09/13 11:26:54;;;;;;;10.80;2.57;;;;;;;15.06;100.00;101494.31;7366387;19;20522;-55
2023/09/13 11:29:25;;;;;;;7.00;2.30;;;;;;;14.88;100.00;101507.56;7396273;19;20958;-54